Newald, Wisconsin
Current Conditions -  °F | °C
As of 7:55 AM on Thursday 23 Oct 2014 (Local Time) from KEGV Reporting Station
Moderate Rain Moderate Rain  
Wind Chill: 40°   Ceiling: 8500
Heat Index: 42°   Visibility: 10mi
Dew Point: 37°   Wind: 5mph
Humidity: 79%   Direction: 190°S
Pressure: 30.06"   Gusts: NA
Location:  45.724°N, 88.8585°W
Report Text: KEGV 231255Z AUTO 19004KT 10SM RA SCT055 OVC085 06/03 A3006 RMK AO2 T00580025
Loading
Personal Weather Stations






























Interactive Weather Map
Tropical Storm Tracking
New forecast layout! Learn more

10-Day Weather Forecast

Advertisements
Track Severe Weather on mobile